sensor_id;sensor_type;location;lat;lon;timestamp;temperature;humidity
20574;DHT22;10445;50.216;7.912;2022-08-19T05:23:15;16.80;82.30
20574;DHT22;10445;50.216;7.912;2022-08-19T05:27:02;16.80;81.80
20574;DHT22;10445;50.216;7.912;2022-08-19T05:29:59;16.90;81.70
20574;DHT22;10445;50.216;7.912;2022-08-19T05:33:44;17.00;82.00
20574;DHT22;10445;50.216;7.912;2022-08-19T05:36:36;16.90;83.20
20574;DHT22;10445;50.216;7.912;2022-08-19T05:39:55;16.90;82.70
20574;DHT22;10445;50.216;7.912;2022-08-19T05:43:06;16.70;83.20
20574;DHT22;10445;50.216;7.912;2022-08-19T05:47:05;16.70;83.60
20574;DHT22;10445;50.216;7.912;2022-08-19T05:50:38;16.70;83.90
20574;DHT22;10445;50.216;7.912;2022-08-19T05:54:26;16.80;83.90
20574;DHT22;10445;50.216;7.912;2022-08-19T06:00:38;16.90;83.70
20574;DHT22;10445;50.216;7.912;2022-08-19T06:06:33;17.00;83.80
20574;DHT22;10445;50.216;7.912;2022-08-19T06:13:17;17.00;84.20
20574;DHT22;10445;50.216;7.912;2022-08-19T06:16:39;17.10;85.20
20574;DHT22;10445;50.216;7.912;2022-08-19T06:20:03;17.10;84.20
20574;DHT22;10445;50.216;7.912;2022-08-19T06:23:54;17.30;83.70
20574;DHT22;10445;50.216;7.912;2022-08-19T06:27:15;17.40;82.40
20574;DHT22;10445;50.216;7.912;2022-08-19T06:30:24;17.50;81.90
20574;DHT22;10445;50.216;7.912;2022-08-19T06:34:01;17.60;81.00
20574;DHT22;10445;50.216;7.912;2022-08-19T06:37:30;17.70;80.10
20574;DHT22;10445;50.216;7.912;2022-08-19T06:40:45;17.80;79.80
20574;DHT22;10445;50.216;7.912;2022-08-19T06:43:34;18.00;79.30
20574;DHT22;10445;50.216;7.912;2022-08-19T06:46:28;18.30;79.20
20574;DHT22;10445;50.216;7.912;2022-08-19T06:49:23;18.50;75.40
20574;DHT22;10445;50.216;7.912;2022-08-19T06:52:14;18.60;73.30
20574;DHT22;10445;50.216;7.912;2022-08-19T06:55:04;18.70;73.20
20574;DHT22;10445;50.216;7.912;2022-08-19T06:57:53;18.90;72.40
20574;DHT22;10445;50.216;7.912;2022-08-19T07:00:42;19.00;72.40
20574;DHT22;10445;50.216;7.912;2022-08-19T07:03:33;19.30;70.50
20574;DHT22;10445;50.216;7.912;2022-08-19T07:06:24;19.40;69.90
20574;DHT22;10445;50.216;7.912;2022-08-19T07:09:30;19.60;67.40
20574;DHT22;10445;50.216;7.912;2022-08-19T07:12:19;19.70;64.80
20574;DHT22;10445;50.216;7.912;2022-08-19T07:15:09;19.80;64.20
20574;DHT22;10445;50.216;7.912;2022-08-19T07:17:59;19.90;62.20
20574;DHT22;10445;50.216;7.912;2022-08-19T07:20:48;20.10;61.80
20574;DHT22;10445;50.216;7.912;2022-08-19T07:23:38;20.20;60.00
20574;DHT22;10445;50.216;7.912;2022-08-19T07:26:31;20.40;57.20
20574;DHT22;10445;50.216;7.912;2022-08-19T07:29:21;20.50;57.00
20574;DHT22;10445;50.216;7.912;2022-08-19T07:32:14;20.60;53.50
20574;DHT22;10445;50.216;7.912;2022-08-19T07:35:03;20.70;52.50
20574;DHT22;10445;50.216;7.912;2022-08-19T07:37:53;20.70;52.50
20574;DHT22;10445;50.216;7.912;2022-08-19T07:40:44;20.80;51.70
20574;DHT22;10445;50.216;7.912;2022-08-19T07:43:33;20.90;49.90
20574;DHT22;10445;50.216;7.912;2022-08-19T07:46:22;21.10;49.40
20574;DHT22;10445;50.216;7.912;2022-08-19T07:49:12;21.30;50.50
20574;DHT22;10445;50.216;7.912;2022-08-19T07:52:06;21.60;42.30
20574;DHT22;10445;50.216;7.912;2022-08-19T07:54:55;21.80;41.90
20574;DHT22;10445;50.216;7.912;2022-08-19T07:57:45;21.90;37.90
20574;DHT22;10445;50.216;7.912;2022-08-19T08:00:34;21.90;35.50
20574;DHT22;10445;50.216;7.912;2022-08-19T08:03:24;22.00;38.30
20574;DHT22;10445;50.216;7.912;2022-08-19T08:06:34;21.90;35.30
20574;DHT22;10445;50.216;7.912;2022-08-19T08:13:24;21.70;40.20
20574;DHT22;10445;50.216;7.912;2022-08-19T08:30:47;20.90;49.40
20574;DHT22;10445;50.216;7.912;2022-08-19T08:33:37;21.00;49.10
20574;DHT22;10445;50.216;7.912;2022-08-19T08:36:29;21.30;43.90
20574;DHT22;10445;50.216;7.912;2022-08-19T08:39:21;21.40;41.90
20574;DHT22;10445;50.216;7.912;2022-08-19T08:42:16;21.40;41.40
20574;DHT22;10445;50.216;7.912;2022-08-19T08:45:13;21.60;44.50
20574;DHT22;10445;50.216;7.912;2022-08-19T08:48:22;21.90;40.20
20574;DHT22;10445;50.216;7.912;2022-08-19T08:51:16;21.90;35.90
20574;DHT22;10445;50.216;7.912;2022-08-19T08:54:10;21.80;33.80
20574;DHT22;10445;50.216;7.912;2022-08-19T08:56:59;21.50;35.40
20574;DHT22;10445;50.216;7.912;2022-08-19T08:59:48;21.50;34.80
20574;DHT22;10445;50.216;7.912;2022-08-19T09:02:39;21.50;36.20
20574;DHT22;10445;50.216;7.912;2022-08-19T09:05:47;21.60;35.60
20574;DHT22;10445;50.216;7.912;2022-08-19T09:08:48;22.00;30.00
20574;DHT22;10445;50.216;7.912;2022-08-19T09:11:54;22.00;23.70
20574;DHT22;10445;50.216;7.912;2022-08-19T09:14:48;22.10;24.80
20574;DHT22;10445;50.216;7.912;2022-08-19T09:17:38;22.20;21.60
20574;DHT22;10445;50.216;7.912;2022-08-19T09:20:28;22.20;19.00
20574;DHT22;10445;50.216;7.912;2022-08-19T09:23:20;22.20;19.80
20574;DHT22;10445;50.216;7.912;2022-08-19T09:26:15;22.30;16.40
20574;DHT22;10445;50.216;7.912;2022-08-19T09:29:06;22.40;15.00
20574;DHT22;10445;50.216;7.912;2022-08-19T09:31:55;22.50;12.30
20574;DHT22;10445;50.216;7.912;2022-08-19T09:34:44;22.60;11.60
20574;DHT22;10445;50.216;7.912;2022-08-19T09:37:37;22.70;9.10
20574;DHT22;10445;50.216;7.912;2022-08-19T09:40:29;22.70;9.60
20574;DHT22;10445;50.216;7.912;2022-08-19T09:43:24;22.80;8.30
20574;DHT22;10445;50.216;7.912;2022-08-19T09:46:20;22.80;8.10
20574;DHT22;10445;50.216;7.912;2022-08-19T09:49:10;22.80;8.60
20574;DHT22;10445;50.216;7.912;2022-08-19T09:51:59;22.80;8.80
20574;DHT22;10445;50.216;7.912;2022-08-19T09:54:51;22.80;8.40
20574;DHT22;10445;50.216;7.912;2022-08-19T09:57:42;22.90;9.20
20574;DHT22;10445;50.216;7.912;2022-08-19T10:00:31;23.00;7.60
20574;DHT22;10445;50.216;7.912;2022-08-19T10:03:19;23.20;5.70
20574;DHT22;10445;50.216;7.912;2022-08-19T10:06:16;23.30;6.80
20574;DHT22;10445;50.216;7.912;2022-08-19T10:09:25;23.20;4.60
20574;DHT22;10445;50.216;7.912;2022-08-19T10:12:21;23.30;4.50
20574;DHT22;10445;50.216;7.912;2022-08-19T10:15:14;23.70;3.20
20574;DHT22;10445;50.216;7.912;2022-08-19T10:18:18;24.10;1.00
20574;DHT22;10445;50.216;7.912;2022-08-19T10:21:10;24.20;1.00
20574;DHT22;10445;50.216;7.912;2022-08-19T10:24:01;24.30;1.00
20574;DHT22;10445;50.216;7.912;2022-08-19T10:26:51;24.30;1.00
20574;DHT22;10445;50.216;7.912;2022-08-19T10:29:43;24.10;1.00
20574;DHT22;10445;50.216;7.912;2022-08-19T10:32:34;23.90;1.00
20574;DHT22;10445;50.216;7.912;2022-08-19T10:35:23;23.70;1.00
20574;DHT22;10445;50.216;7.912;2022-08-19T10:38:14;23.60;1.00
20574;DHT22;10445;50.216;7.912;2022-08-19T10:41:10;23.60;1.00
20574;DHT22;10445;50.216;7.912;2022-08-19T10:44:02;23.70;1.00
20574;DHT22;10445;50.216;7.912;2022-08-19T10:46:52;23.70;1.00
20574;DHT22;10445;50.216;7.912;2022-08-19T10:49:44;23.50;1.00
20574;DHT22;10445;50.216;7.912;2022-08-19T10:52:51;23.40;1.00
20574;DHT22;10445;50.216;7.912;2022-08-19T10:55:45;23.30;1.00
20574;DHT22;10445;50.216;7.912;2022-08-19T10:58:52;23.30;1.00
20574;DHT22;10445;50.216;7.912;2022-08-19T11:01:43;23.50;1.00
20574;DHT22;10445;50.216;7.912;2022-08-19T11:04:32;23.50;1.00
20574;DHT22;10445;50.216;7.912;2022-08-19T11:07:23;23.50;1.00
20574;DHT22;10445;50.216;7.912;2022-08-19T11:10:14;23.40;1.00
20574;DHT22;10445;50.216;7.912;2022-08-19T11:13:08;23.30;1.00
20574;DHT22;10445;50.216;7.912;2022-08-19T11:15:59;23.40;1.00
20574;DHT22;10445;50.216;7.912;2022-08-19T11:18:56;23.70;1.00
20574;DHT22;10445;50.216;7.912;2022-08-19T11:21:50;24.10;1.00
20574;DHT22;10445;50.216;7.912;2022-08-19T11:24:45;24.20;1.00
20574;DHT22;10445;50.216;7.912;2022-08-19T11:27:37;24.40;1.00
20574;DHT22;10445;50.216;7.912;2022-08-19T11:30:26;24.30;1.00
20574;DHT22;10445;50.216;7.912;2022-08-19T11:33:15;24.10;1.00
20574;DHT22;10445;50.216;7.912;2022-08-19T11:36:04;23.90;1.00
20574;DHT22;10445;50.216;7.912;2022-08-19T11:38:53;24.00;1.00
20574;DHT22;10445;50.216;7.912;2022-08-19T11:41:44;24.20;1.00
20574;DHT22;10445;50.216;7.912;2022-08-19T11:44:33;24.30;1.00
20574;DHT22;10445;50.216;7.912;2022-08-19T11:47:23;24.30;1.00
20574;DHT22;10445;50.216;7.912;2022-08-19T11:50:11;24.20;1.00
20574;DHT22;10445;50.216;7.912;2022-08-19T11:53:00;23.90;1.00
20574;DHT22;10445;50.216;7.912;2022-08-19T11:55:53;23.70;1.00
20574;DHT22;10445;50.216;7.912;2022-08-19T11:58:44;23.70;1.00
20574;DHT22;10445;50.216;7.912;2022-08-19T12:01:33;23.80;1.00
20574;DHT22;10445;50.216;7.912;2022-08-19T12:04:23;24.10;1.00
20574;DHT22;10445;50.216;7.912;2022-08-19T12:07:11;24.40;1.00
20574;DHT22;10445;50.216;7.912;2022-08-19T12:10:00;24.70;1.00
20574;DHT22;10445;50.216;7.912;2022-08-19T12:12:49;25.00;1.00
20574;DHT22;10445;50.216;7.912;2022-08-19T12:15:47;24.80;1.00
20574;DHT22;10445;50.216;7.912;2022-08-19T12:18:37;24.50;1.00
20574;DHT22;10445;50.216;7.912;2022-08-19T12:21:27;24.30;1.00
20574;DHT22;10445;50.216;7.912;2022-08-19T12:24:16;24.40;1.00
20574;DHT22;10445;50.216;7.912;2022-08-19T12:27:10;24.50;1.00
20574;DHT22;10445;50.216;7.912;2022-08-19T12:30:18;24.60;1.00
20574;DHT22;10445;50.216;7.912;2022-08-19T12:33:08;25.30;1.00
20574;DHT22;10445;50.216;7.912;2022-08-19T12:36:00;25.70;1.00
20574;DHT22;10445;50.216;7.912;2022-08-19T12:38:50;26.30;1.00
20574;DHT22;10445;50.216;7.912;2022-08-19T12:41:39;26.70;1.00
20574;DHT22;10445;50.216;7.912;2022-08-19T12:44:42;26.80;1.00
20574;DHT22;10445;50.216;7.912;2022-08-19T12:47:31;26.70;1.00
20574;DHT22;10445;50.216;7.912;2022-08-19T12:50:25;27.00;1.00
20574;DHT22;10445;50.216;7.912;2022-08-19T12:53:14;28.00;1.00
20574;DHT22;10445;50.216;7.912;2022-08-19T12:56:03;28.90;1.00
20574;DHT22;10445;50.216;7.912;2022-08-19T12:58:57;29.50;1.00
20574;DHT22;10445;50.216;7.912;2022-08-19T13:01:47;30.00;1.00
20574;DHT22;10445;50.216;7.912;2022-08-19T13:04:37;30.00;1.00
20574;DHT22;10445;50.216;7.912;2022-08-19T13:07:29;29.00;1.00
20574;DHT22;10445;50.216;7.912;2022-08-19T13:10:21;28.20;1.00
20574;DHT22;10445;50.216;7.912;2022-08-19T13:13:10;27.70;1.00
20574;DHT22;10445;50.216;7.912;2022-08-19T13:16:00;27.10;1.00
20574;DHT22;10445;50.216;7.912;2022-08-19T13:18:50;26.70;1.00
20574;DHT22;10445;50.216;7.912;2022-08-19T13:21:39;26.30;1.00
20574;DHT22;10445;50.216;7.912;2022-08-19T13:24:30;25.80;1.00
20574;DHT22;10445;50.216;7.912;2022-08-19T13:27:20;25.40;1.00
20574;DHT22;10445;50.216;7.912;2022-08-19T13:30:14;25.20;1.00
20574;DHT22;10445;50.216;7.912;2022-08-19T13:33:21;25.10;1.00
20574;DHT22;10445;50.216;7.912;2022-08-19T13:36:12;25.20;1.00
20574;DHT22;10445;50.216;7.912;2022-08-19T13:39:01;25.20;1.00
20574;DHT22;10445;50.216;7.912;2022-08-19T13:41:51;25.30;1.00
20574;DHT22;10445;50.216;7.912;2022-08-19T13:44:40;25.60;1.00
20574;DHT22;10445;50.216;7.912;2022-08-19T13:47:29;26.00;1.00
20574;DHT22;10445;50.216;7.912;2022-08-19T13:50:20;26.30;1.00
20574;DHT22;10445;50.216;7.912;2022-08-19T13:53:10;26.40;1.00
20574;DHT22;10445;50.216;7.912;2022-08-19T13:55:59;26.50;1.00
20574;DHT22;10445;50.216;7.912;2022-08-19T13:58:49;26.50;1.00
20574;DHT22;10445;50.216;7.912;2022-08-19T14:01:38;26.50;1.00
20574;DHT22;10445;50.216;7.912;2022-08-19T14:04:27;26.50;1.00
20574;DHT22;10445;50.216;7.912;2022-08-19T14:07:16;26.60;1.00
20574;DHT22;10445;50.216;7.912;2022-08-19T14:10:07;26.70;1.00
20574;DHT22;10445;50.216;7.912;2022-08-19T14:12:58;26.70;1.00
20574;DHT22;10445;50.216;7.912;2022-08-19T14:15:49;26.50;1.00
20574;DHT22;10445;50.216;7.912;2022-08-19T14:18:39;26.10;1.00
20574;DHT22;10445;50.216;7.912;2022-08-19T14:21:28;25.90;1.00
20574;DHT22;10445;50.216;7.912;2022-08-19T14:24:16;25.90;1.00
20574;DHT22;10445;50.216;7.912;2022-08-19T14:27:06;25.90;1.00
20574;DHT22;10445;50.216;7.912;2022-08-19T14:29:56;26.10;1.00
20574;DHT22;10445;50.216;7.912;2022-08-19T14:32:46;26.20;1.00
20574;DHT22;10445;50.216;7.912;2022-08-19T14:35:36;26.40;1.00
20574;DHT22;10445;50.216;7.912;2022-08-19T14:38:25;26.50;1.00
20574;DHT22;10445;50.216;7.912;2022-08-19T14:41:20;26.70;1.00
20574;DHT22;10445;50.216;7.912;2022-08-19T14:44:09;26.70;1.00
20574;DHT22;10445;50.216;7.912;2022-08-19T14:46:59;26.80;1.00
20574;DHT22;10445;50.216;7.912;2022-08-19T14:49:52;26.80;1.00
20574;DHT22;10445;50.216;7.912;2022-08-19T14:52:41;26.60;1.00
20574;DHT22;10445;50.216;7.912;2022-08-19T14:55:30;26.50;1.00
20574;DHT22;10445;50.216;7.912;2022-08-19T14:58:19;26.60;1.00
20574;DHT22;10445;50.216;7.912;2022-08-19T15:01:16;26.70;1.00
20574;DHT22;10445;50.216;7.912;2022-08-19T15:04:07;26.70;1.00
20574;DHT22;10445;50.216;7.912;2022-08-19T15:06:57;26.70;1.00
20574;DHT22;10445;50.216;7.912;2022-08-19T15:09:49;26.40;1.00
20574;DHT22;10445;50.216;7.912;2022-08-19T15:12:38;26.20;1.00
20574;DHT22;10445;50.216;7.912;2022-08-19T15:15:28;26.20;1.00
20574;DHT22;10445;50.216;7.912;2022-08-19T15:18:17;26.20;1.00
20574;DHT22;10445;50.216;7.912;2022-08-19T15:21:07;26.30;1.00
20574;DHT22;10445;50.216;7.912;2022-08-19T15:23:58;26.20;1.00
20574;DHT22;10445;50.216;7.912;2022-08-19T15:26:48;26.10;1.00
20574;DHT22;10445;50.216;7.912;2022-08-19T15:29:36;26.00;1.00
20574;DHT22;10445;50.216;7.912;2022-08-19T15:32:25;25.80;1.00
20574;DHT22;10445;50.216;7.912;2022-08-19T15:35:15;25.70;1.00
20574;DHT22;10445;50.216;7.912;2022-08-19T15:38:05;25.70;1.00
20574;DHT22;10445;50.216;7.912;2022-08-19T15:40:56;25.80;1.00
20574;DHT22;10445;50.216;7.912;2022-08-19T15:44:09;25.70;1.00
20574;DHT22;10445;50.216;7.912;2022-08-19T15:46:59;25.80;1.00
20574;DHT22;10445;50.216;7.912;2022-08-19T15:49:51;25.70;1.00
20574;DHT22;10445;50.216;7.912;2022-08-19T15:52:47;25.60;1.00
20574;DHT22;10445;50.216;7.912;2022-08-19T15:55:41;25.60;1.00
20574;DHT22;10445;50.216;7.912;2022-08-19T15:58:32;25.50;1.00
20574;DHT22;10445;50.216;7.912;2022-08-19T16:01:38;25.60;1.00
20574;DHT22;10445;50.216;7.912;2022-08-19T16:04:47;25.50;1.00
20574;DHT22;10445;50.216;7.912;2022-08-19T16:07:53;25.40;1.00
20574;DHT22;10445;50.216;7.912;2022-08-19T16:10:43;25.20;1.00
20574;DHT22;10445;50.216;7.912;2022-08-19T16:13:33;25.30;1.00
20574;DHT22;10445;50.216;7.912;2022-08-19T16:16:25;25.30;1.00
20574;DHT22;10445;50.216;7.912;2022-08-19T16:19:19;25.20;1.00
20574;DHT22;10445;50.216;7.912;2022-08-19T16:22:11;25.30;1.00
20574;DHT22;10445;50.216;7.912;2022-08-19T16:25:00;25.20;1.00
20574;DHT22;10445;50.216;7.912;2022-08-19T16:27:50;25.10;1.00
20574;DHT22;10445;50.216;7.912;2022-08-19T16:30:55;25.10;1.00
20574;DHT22;10445;50.216;7.912;2022-08-19T16:33:44;25.20;1.00
20574;DHT22;10445;50.216;7.912;2022-08-19T16:36:33;25.20;1.00
20574;DHT22;10445;50.216;7.912;2022-08-19T16:39:23;25.10;1.00
20574;DHT22;10445;50.216;7.912;2022-08-19T16:42:12;25.10;1.00
20574;DHT22;10445;50.216;7.912;2022-08-19T16:45:01;25.10;1.00
20574;DHT22;10445;50.216;7.912;2022-08-19T16:47:52;25.00;1.00
20574;DHT22;10445;50.216;7.912;2022-08-19T16:50:44;25.00;1.00
20574;DHT22;10445;50.216;7.912;2022-08-19T16:53:37;25.00;1.00
20574;DHT22;10445;50.216;7.912;2022-08-19T16:56:26;24.90;1.00
20574;DHT22;10445;50.216;7.912;2022-08-19T16:59:15;24.90;1.00
20574;DHT22;10445;50.216;7.912;2022-08-19T17:02:04;24.80;1.00
20574;DHT22;10445;50.216;7.912;2022-08-19T17:04:58;24.70;1.00
20574;DHT22;10445;50.216;7.912;2022-08-19T17:07:47;24.60;1.00
20574;DHT22;10445;50.216;7.912;2022-08-19T17:10:36;24.70;1.00
20574;DHT22;10445;50.216;7.912;2022-08-19T17:13:26;24.70;1.00
20574;DHT22;10445;50.216;7.912;2022-08-19T17:16:18;24.60;1.00
20574;DHT22;10445;50.216;7.912;2022-08-19T17:19:08;24.50;1.00
20574;DHT22;10445;50.216;7.912;2022-08-19T17:21:58;24.40;1.00
20574;DHT22;10445;50.216;7.912;2022-08-19T17:24:47;24.30;1.00
20574;DHT22;10445;50.216;7.912;2022-08-19T17:27:35;24.30;1.00
20574;DHT22;10445;50.216;7.912;2022-08-19T17:30:24;24.20;1.00
20574;DHT22;10445;50.216;7.912;2022-08-19T17:33:13;24.10;1.00
20574;DHT22;10445;50.216;7.912;2022-08-19T17:36:03;24.10;1.00
20574;DHT22;10445;50.216;7.912;2022-08-19T17:38:56;24.00;1.00
20574;DHT22;10445;50.216;7.912;2022-08-19T17:41:45;23.90;1.00
20574;DHT22;10445;50.216;7.912;2022-08-19T17:44:34;23.80;1.00
20574;DHT22;10445;50.216;7.912;2022-08-19T17:47:23;23.80;1.00
20574;DHT22;10445;50.216;7.912;2022-08-19T17:50:12;23.70;1.00
20574;DHT22;10445;50.216;7.912;2022-08-19T17:53:01;23.60;1.00
20574;DHT22;10445;50.216;7.912;2022-08-19T17:55:52;23.50;1.00
20574;DHT22;10445;50.216;7.912;2022-08-19T17:58:41;23.40;1.00
20574;DHT22;10445;50.216;7.912;2022-08-19T18:01:41;23.40;1.00
20574;DHT22;10445;50.216;7.912;2022-08-19T18:04:40;23.30;1.00
20574;DHT22;10445;50.216;7.912;2022-08-19T18:07:34;23.20;1.00
20574;DHT22;10445;50.216;7.912;2022-08-19T18:10:26;23.10;1.00
20574;DHT22;10445;50.216;7.912;2022-08-19T18:13:22;23.10;1.00
20574;DHT22;10445;50.216;7.912;2022-08-19T18:16:12;22.90;1.00
20574;DHT22;10445;50.216;7.912;2022-08-19T18:19:02;22.80;1.00
20574;DHT22;10445;50.216;7.912;2022-08-19T18:21:51;22.70;1.00
20574;DHT22;10445;50.216;7.912;2022-08-19T18:24:40;22.70;1.00
20574;DHT22;10445;50.216;7.912;2022-08-19T18:27:32;22.60;1.00
20574;DHT22;10445;50.216;7.912;2022-08-19T18:30:23;22.60;1.00
20574;DHT22;10445;50.216;7.912;2022-08-19T18:33:12;22.50;1.00
20574;DHT22;10445;50.216;7.912;2022-08-19T18:36:03;22.50;1.00
20574;DHT22;10445;50.216;7.912;2022-08-19T18:38:54;22.50;1.00
20574;DHT22;10445;50.216;7.912;2022-08-19T18:42:02;22.40;1.00
20574;DHT22;10445;50.216;7.912;2022-08-19T18:45:08;22.40;1.00
20574;DHT22;10445;50.216;7.912;2022-08-19T18:48:16;22.40;1.00
20574;DHT22;10445;50.216;7.912;2022-08-19T18:51:23;22.30;1.00
20574;DHT22;10445;50.216;7.912;2022-08-19T18:54:14;22.30;1.00
20574;DHT22;10445;50.216;7.912;2022-08-19T18:57:03;22.30;1.00
20574;DHT22;10445;50.216;7.912;2022-08-19T18:59:52;22.30;1.00
20574;DHT22;10445;50.216;7.912;2022-08-19T19:02:42;22.20;1.00
20574;DHT22;10445;50.216;7.912;2022-08-19T19:05:33;22.20;1.00
20574;DHT22;10445;50.216;7.912;2022-08-19T19:08:21;22.10;1.00
20574;DHT22;10445;50.216;7.912;2022-08-19T19:11:17;22.10;1.00
20574;DHT22;10445;50.216;7.912;2022-08-19T19:14:09;22.10;1.00
20574;DHT22;10445;50.216;7.912;2022-08-19T19:17:18;22.10;1.00
20574;DHT22;10445;50.216;7.912;2022-08-19T19:20:14;21.90;1.00
20574;DHT22;10445;50.216;7.912;2022-08-19T19:23:06;21.90;1.00
20574;DHT22;10445;50.216;7.912;2022-08-19T19:25:55;21.90;1.00
20574;DHT22;10445;50.216;7.912;2022-08-19T19:28:44;21.90;1.00
20574;DHT22;10445;50.216;7.912;2022-08-19T19:31:33;21.90;1.00
20574;DHT22;10445;50.216;7.912;2022-08-19T19:34:23;21.80;1.00
20574;DHT22;10445;50.216;7.912;2022-08-19T19:37:15;21.80;1.00
20574;DHT22;10445;50.216;7.912;2022-08-19T19:40:06;21.70;1.00
20574;DHT22;10445;50.216;7.912;2022-08-19T19:42:56;21.70;1.00
20574;DHT22;10445;50.216;7.912;2022-08-19T19:45:46;21.70;1.00
20574;DHT22;10445;50.216;7.912;2022-08-19T19:48:36;21.70;1.00
20574;DHT22;10445;50.216;7.912;2022-08-19T19:51:25;21.70;1.00
20574;DHT22;10445;50.216;7.912;2022-08-19T19:54:14;21.70;1.00
20574;DHT22;10445;50.216;7.912;2022-08-19T19:57:11;21.70;1.00
20574;DHT22;10445;50.216;7.912;2022-08-19T20:00:02;21.70;1.00
20574;DHT22;10445;50.216;7.912;2022-08-19T20:02:51;21.70;1.00
20574;DHT22;10445;50.216;7.912;2022-08-19T20:05:41;21.60;1.00
20574;DHT22;10445;50.216;7.912;2022-08-19T20:08:30;21.60;1.00
20574;DHT22;10445;50.216;7.912;2022-08-19T20:11:39;21.50;1.00
20574;DHT22;10445;50.216;7.912;2022-08-19T20:14:32;21.50;1.00
20574;DHT22;10445;50.216;7.912;2022-08-19T20:17:22;21.50;1.00
20574;DHT22;10445;50.216;7.912;2022-08-19T20:20:19;21.50;1.00
20574;DHT22;10445;50.216;7.912;2022-08-19T20:23:11;21.50;1.00
20574;DHT22;10445;50.216;7.912;2022-08-19T20:26:00;21.40;1.00
20574;DHT22;10445;50.216;7.912;2022-08-19T20:28:49;21.40;1.00
20574;DHT22;10445;50.216;7.912;2022-08-19T20:32:00;21.40;1.00
20574;DHT22;10445;50.216;7.912;2022-08-19T20:34:48;21.40;1.00
20574;DHT22;10445;50.216;7.912;2022-08-19T20:37:38;21.40;1.00
20574;DHT22;10445;50.216;7.912;2022-08-19T20:40:28;21.40;1.00
20574;DHT22;10445;50.216;7.912;2022-08-19T20:43:18;21.40;1.10
20574;DHT22;10445;50.216;7.912;2022-08-19T20:46:07;21.40;1.00
20574;DHT22;10445;50.216;7.912;2022-08-19T20:48:58;21.40;2.60
20574;DHT22;10445;50.216;7.912;2022-08-19T20:51:52;21.30;3.30
20574;DHT22;10445;50.216;7.912;2022-08-19T20:54:40;21.30;3.70
20574;DHT22;10445;50.216;7.912;2022-08-19T20:57:29;21.30;4.00
20574;DHT22;10445;50.216;7.912;2022-08-19T21:00:18;21.30;4.70
20574;DHT22;10445;50.216;7.912;2022-08-19T21:03:07;21.30;5.50
20574;DHT22;10445;50.216;7.912;2022-08-19T21:05:57;21.30;5.60
20574;DHT22;10445;50.216;7.912;2022-08-19T21:08:46;21.30;6.10
20574;DHT22;10445;50.216;7.912;2022-08-19T21:11:38;21.30;6.60
20574;DHT22;10445;50.216;7.912;2022-08-19T21:14:27;21.20;7.30
20574;DHT22;10445;50.216;7.912;2022-08-19T21:17:17;21.20;7.30
20574;DHT22;10445;50.216;7.912;2022-08-19T21:20:07;21.20;7.90
20574;DHT22;10445;50.216;7.912;2022-08-19T21:23:02;21.10;8.30
20574;DHT22;10445;50.216;7.912;2022-08-19T21:25:51;21.10;9.50
20574;DHT22;10445;50.216;7.912;2022-08-19T21:28:41;21.10;10.10
20574;DHT22;10445;50.216;7.912;2022-08-19T21:31:29;21.10;10.80
20574;DHT22;10445;50.216;7.912;2022-08-19T21:34:18;21.10;10.90
20574;DHT22;10445;50.216;7.912;2022-08-19T21:37:07;21.10;11.50
20574;DHT22;10445;50.216;7.912;2022-08-19T21:40:13;21.10;11.50
20574;DHT22;10445;50.216;7.912;2022-08-19T21:43:02;21.00;12.30
20574;DHT22;10445;50.216;7.912;2022-08-19T21:45:52;21.00;13.50
20574;DHT22;10445;50.216;7.912;2022-08-19T21:48:42;20.90;14.30
20574;DHT22;10445;50.216;7.912;2022-08-19T21:51:31;20.90;14.80
20574;DHT22;10445;50.216;7.912;2022-08-19T21:54:20;20.80;16.30
20574;DHT22;10445;50.216;7.912;2022-08-19T21:57:10;20.80;16.70
20574;DHT22;10445;50.216;7.912;2022-08-19T21:59:59;20.80;16.80
20574;DHT22;10445;50.216;7.912;2022-08-19T22:02:48;20.80;17.80
20574;DHT22;10445;50.216;7.912;2022-08-19T22:05:37;20.80;18.20
20574;DHT22;10445;50.216;7.912;2022-08-19T22:08:26;20.80;18.80
20574;DHT22;10445;50.216;7.912;2022-08-19T22:11:17;20.70;19.60
20574;DHT22;10445;50.216;7.912;2022-08-19T22:14:07;20.70;20.80
20574;DHT22;10445;50.216;7.912;2022-08-19T22:16:56;20.70;21.00
20574;DHT22;10445;50.216;7.912;2022-08-19T22:19:45;20.80;20.40
20574;DHT22;10445;50.216;7.912;2022-08-19T22:22:34;20.80;21.40
20574;DHT22;10445;50.216;7.912;2022-08-19T22:25:25;20.80;21.70
20574;DHT22;10445;50.216;7.912;2022-08-19T22:28:17;20.70;22.00
20574;DHT22;10445;50.216;7.912;2022-08-19T22:31:15;20.70;23.70
20574;DHT22;10445;50.216;7.912;2022-08-19T22:34:05;20.70;23.40
20574;DHT22;10445;50.216;7.912;2022-08-19T22:36:54;20.70;23.60
20574;DHT22;10445;50.216;7.912;2022-08-19T22:39:43;20.60;25.30
20574;DHT22;10445;50.216;7.912;2022-08-19T22:42:32;20.60;26.10
20574;DHT22;10445;50.216;7.912;2022-08-19T22:45:21;20.60;26.20
20574;DHT22;10445;50.216;7.912;2022-08-19T22:48:13;20.60;27.30
20574;DHT22;10445;50.216;7.912;2022-08-19T22:51:03;20.60;28.50
20574;DHT22;10445;50.216;7.912;2022-08-19T22:54:05;20.60;28.80
20574;DHT22;10445;50.216;7.912;2022-08-19T22:56:54;20.50;29.00
20574;DHT22;10445;50.216;7.912;2022-08-19T22:59:43;20.50;29.30
20574;DHT22;10445;50.216;7.912;2022-08-19T23:02:34;20.60;30.50
20574;DHT22;10445;50.216;7.912;2022-08-19T23:05:28;20.60;31.10
20574;DHT22;10445;50.216;7.912;2022-08-19T23:08:17;20.50;32.00
20574;DHT22;10445;50.216;7.912;2022-08-19T23:11:07;20.50;34.00
20574;DHT22;10445;50.216;7.912;2022-08-19T23:13:56;20.40;37.30
20574;DHT22;10445;50.216;7.912;2022-08-19T23:16:46;20.40;40.80
20574;DHT22;10445;50.216;7.912;2022-08-19T23:19:38;20.30;43.80
20574;DHT22;10445;50.216;7.912;2022-08-19T23:22:28;20.30;45.40
20574;DHT22;10445;50.216;7.912;2022-08-19T23:25:20;20.20;45.30
20574;DHT22;10445;50.216;7.912;2022-08-19T23:28:08;20.20;46.70
20574;DHT22;10445;50.216;7.912;2022-08-19T23:31:15;20.20;47.00
20574;DHT22;10445;50.216;7.912;2022-08-19T23:34:04;20.10;48.50
20574;DHT22;10445;50.216;7.912;2022-08-19T23:36:53;20.10;50.60
20574;DHT22;10445;50.216;7.912;2022-08-19T23:39:43;20.10;50.90
20574;DHT22;10445;50.216;7.912;2022-08-19T23:42:32;20.10;51.50
20574;DHT22;10445;50.216;7.912;2022-08-19T23:45:22;20.10;51.80
20574;DHT22;10445;50.216;7.912;2022-08-19T23:48:12;20.10;52.40
20574;DHT22;10445;50.216;7.912;2022-08-19T23:51:03;20.10;52.90
20574;DHT22;10445;50.216;7.912;2022-08-19T23:53:53;20.00;54.70
20574;DHT22;10445;50.216;7.912;2022-08-19T23:56:43;19.90;54.30
20574;DHT22;10445;50.216;7.912;2022-08-19T23:59:32;19.90;55.50
